sensor_id;sensor_type;location;lat;lon;timestamp;temperature;humidity
13332;DHT22;6735;51.456;12.626;2023-04-25T00:01:59;8.90;71.00
13332;DHT22;6735;51.456;12.626;2023-04-25T00:04:25;8.90;71.10
13332;DHT22;6735;51.456;12.626;2023-04-25T00:06:53;8.90;71.10
13332;DHT22;6735;51.456;12.626;2023-04-25T00:09:19;9.00;71.10
13332;DHT22;6735;51.456;12.626;2023-04-25T00:11:45;9.00;71.50
13332;DHT22;6735;51.456;12.626;2023-04-25T00:14:10;9.00;71.30
13332;DHT22;6735;51.456;12.626;2023-04-25T00:16:36;9.00;71.40
13332;DHT22;6735;51.456;12.626;2023-04-25T00:19:01;9.00;71.30
13332;DHT22;6735;51.456;12.626;2023-04-25T00:21:28;9.00;71.50
13332;DHT22;6735;51.456;12.626;2023-04-25T00:23:54;9.00;71.50
13332;DHT22;6735;51.456;12.626;2023-04-25T00:26:20;9.10;71.40
13332;DHT22;6735;51.456;12.626;2023-04-25T00:28:48;9.10;71.40
13332;DHT22;6735;51.456;12.626;2023-04-25T00:31:14;9.10;71.60
13332;DHT22;6735;51.456;12.626;2023-04-25T00:33:39;9.10;71.60
13332;DHT22;6735;51.456;12.626;2023-04-25T00:36:06;9.10;71.80
13332;DHT22;6735;51.456;12.626;2023-04-25T00:38:31;9.00;71.60
13332;DHT22;6735;51.456;12.626;2023-04-25T00:40:57;9.00;71.80
13332;DHT22;6735;51.456;12.626;2023-04-25T00:43:25;8.90;71.90
13332;DHT22;6735;51.456;12.626;2023-04-25T00:45:52;8.90;72.20
13332;DHT22;6735;51.456;12.626;2023-04-25T00:48:19;8.90;72.30
13332;DHT22;6735;51.456;12.626;2023-04-25T00:50:55;8.90;72.40
13332;DHT22;6735;51.456;12.626;2023-04-25T00:53:21;8.90;72.30
13332;DHT22;6735;51.456;12.626;2023-04-25T00:55:48;8.90;72.60
13332;DHT22;6735;51.456;12.626;2023-04-25T00:58:16;8.90;72.70
13332;DHT22;6735;51.456;12.626;2023-04-25T01:00:42;8.80;72.80
13332;DHT22;6735;51.456;12.626;2023-04-25T01:03:07;8.80;72.80
13332;DHT22;6735;51.456;12.626;2023-04-25T01:05:33;8.80;73.00
13332;DHT22;6735;51.456;12.626;2023-04-25T01:07:58;8.80;73.10
13332;DHT22;6735;51.456;12.626;2023-04-25T01:10:24;8.80;73.20
13332;DHT22;6735;51.456;12.626;2023-04-25T01:12:50;8.70;73.30
13332;DHT22;6735;51.456;12.626;2023-04-25T01:15:15;8.80;73.40
13332;DHT22;6735;51.456;12.626;2023-04-25T01:17:41;8.70;73.50
13332;DHT22;6735;51.456;12.626;2023-04-25T01:20:08;8.70;73.50
13332;DHT22;6735;51.456;12.626;2023-04-25T01:22:34;8.70;73.50
13332;DHT22;6735;51.456;12.626;2023-04-25T01:25:00;8.60;74.00
13332;DHT22;6735;51.456;12.626;2023-04-25T01:27:25;8.50;74.00
13332;DHT22;6735;51.456;12.626;2023-04-25T01:29:52;8.50;74.00
13332;DHT22;6735;51.456;12.626;2023-04-25T01:32:19;8.40;74.30
13332;DHT22;6735;51.456;12.626;2023-04-25T01:34:44;8.30;74.20
13332;DHT22;6735;51.456;12.626;2023-04-25T01:37:10;8.30;74.20
13332;DHT22;6735;51.456;12.626;2023-04-25T01:39:35;8.10;74.80
13332;DHT22;6735;51.456;12.626;2023-04-25T01:42:01;8.10;74.80
13332;DHT22;6735;51.456;12.626;2023-04-25T01:44:27;8.00;75.00
13332;DHT22;6735;51.456;12.626;2023-04-25T01:46:53;8.00;75.00
13332;DHT22;6735;51.456;12.626;2023-04-25T01:49:19;8.00;75.10
13332;DHT22;6735;51.456;12.626;2023-04-25T01:51:44;7.90;75.10
13332;DHT22;6735;51.456;12.626;2023-04-25T01:54:10;7.80;75.20
13332;DHT22;6735;51.456;12.626;2023-04-25T01:56:37;7.80;75.20
13332;DHT22;6735;51.456;12.626;2023-04-25T01:59:04;7.70;75.50
13332;DHT22;6735;51.456;12.626;2023-04-25T02:01:29;7.70;75.30
13332;DHT22;6735;51.456;12.626;2023-04-25T02:03:55;7.60;75.10
13332;DHT22;6735;51.456;12.626;2023-04-25T02:06:20;7.60;75.50
13332;DHT22;6735;51.456;12.626;2023-04-25T02:08:46;7.50;75.50
13332;DHT22;6735;51.456;12.626;2023-04-25T02:11:11;7.50;75.60
13332;DHT22;6735;51.456;12.626;2023-04-25T02:13:37;7.40;75.70
13332;DHT22;6735;51.456;12.626;2023-04-25T02:16:02;7.40;75.70
13332;DHT22;6735;51.456;12.626;2023-04-25T02:18:28;7.30;75.80
13332;DHT22;6735;51.456;12.626;2023-04-25T02:20:53;7.30;75.80
13332;DHT22;6735;51.456;12.626;2023-04-25T02:23:19;7.20;75.70
13332;DHT22;6735;51.456;12.626;2023-04-25T02:25:45;7.10;75.70
13332;DHT22;6735;51.456;12.626;2023-04-25T02:28:11;7.10;76.00
13332;DHT22;6735;51.456;12.626;2023-04-25T02:30:36;7.10;76.00
13332;DHT22;6735;51.456;12.626;2023-04-25T02:33:02;7.10;76.00
13332;DHT22;6735;51.456;12.626;2023-04-25T02:35:27;7.00;76.10
13332;DHT22;6735;51.456;12.626;2023-04-25T02:37:54;6.90;76.20
13332;DHT22;6735;51.456;12.626;2023-04-25T02:40:19;6.90;76.10
13332;DHT22;6735;51.456;12.626;2023-04-25T02:42:45;6.80;76.20
13332;DHT22;6735;51.456;12.626;2023-04-25T02:45:13;6.80;76.00
13332;DHT22;6735;51.456;12.626;2023-04-25T02:47:39;6.70;76.20
13332;DHT22;6735;51.456;12.626;2023-04-25T02:50:05;6.70;76.20
13332;DHT22;6735;51.456;12.626;2023-04-25T02:52:30;6.70;76.10
13332;DHT22;6735;51.456;12.626;2023-04-25T02:54:56;6.70;76.10
13332;DHT22;6735;51.456;12.626;2023-04-25T02:57:21;6.60;76.10
13332;DHT22;6735;51.456;12.626;2023-04-25T02:59:47;6.60;76.20
13332;DHT22;6735;51.456;12.626;2023-04-25T03:02:12;6.50;76.10
13332;DHT22;6735;51.456;12.626;2023-04-25T03:04:38;6.50;76.10
13332;DHT22;6735;51.456;12.626;2023-04-25T03:07:03;6.50;76.30
13332;DHT22;6735;51.456;12.626;2023-04-25T03:09:29;6.40;76.50
13332;DHT22;6735;51.456;12.626;2023-04-25T03:11:55;6.40;76.60
13332;DHT22;6735;51.456;12.626;2023-04-25T03:14:20;6.40;76.60
13332;DHT22;6735;51.456;12.626;2023-04-25T03:16:46;6.30;76.60
13332;DHT22;6735;51.456;12.626;2023-04-25T03:19:11;6.30;76.70
13332;DHT22;6735;51.456;12.626;2023-04-25T03:21:37;6.30;76.70
13332;DHT22;6735;51.456;12.626;2023-04-25T03:24:04;6.20;76.60
13332;DHT22;6735;51.456;12.626;2023-04-25T03:26:30;6.20;76.90
13332;DHT22;6735;51.456;12.626;2023-04-25T03:28:55;6.10;77.00
13332;DHT22;6735;51.456;12.626;2023-04-25T03:31:21;6.10;77.20
13332;DHT22;6735;51.456;12.626;2023-04-25T03:33:47;6.10;77.20
13332;DHT22;6735;51.456;12.626;2023-04-25T03:36:13;6.00;77.20
13332;DHT22;6735;51.456;12.626;2023-04-25T03:38:38;6.00;77.40
13332;DHT22;6735;51.456;12.626;2023-04-25T03:41:04;5.90;77.40
13332;DHT22;6735;51.456;12.626;2023-04-25T03:43:29;5.90;77.50
13332;DHT22;6735;51.456;12.626;2023-04-25T03:45:55;5.80;77.70
13332;DHT22;6735;51.456;12.626;2023-04-25T03:48:20;5.80;77.70
13332;DHT22;6735;51.456;12.626;2023-04-25T03:50:51;5.80;77.80
13332;DHT22;6735;51.456;12.626;2023-04-25T03:53:16;5.70;77.60
13332;DHT22;6735;51.456;12.626;2023-04-25T03:55:42;5.70;77.60
13332;DHT22;6735;51.456;12.626;2023-04-25T03:58:07;5.70;77.80
13332;DHT22;6735;51.456;12.626;2023-04-25T04:00:34;5.70;78.00
13332;DHT22;6735;51.456;12.626;2023-04-25T04:03:00;5.70;77.90
13332;DHT22;6735;51.456;12.626;2023-04-25T04:05:25;5.70;77.80
13332;DHT22;6735;51.456;12.626;2023-04-25T04:07:51;5.70;78.00
13332;DHT22;6735;51.456;12.626;2023-04-25T04:10:16;5.70;78.20
13332;DHT22;6735;51.456;12.626;2023-04-25T04:12:42;5.70;78.30
13332;DHT22;6735;51.456;12.626;2023-04-25T04:15:08;5.70;78.10
13332;DHT22;6735;51.456;12.626;2023-04-25T04:17:33;5.70;78.20
13332;DHT22;6735;51.456;12.626;2023-04-25T04:19:59;5.70;78.10
13332;DHT22;6735;51.456;12.626;2023-04-25T04:22:25;5.70;78.10
13332;DHT22;6735;51.456;12.626;2023-04-25T04:24:50;5.70;78.30
13332;DHT22;6735;51.456;12.626;2023-04-25T04:27:19;5.70;78.20
13332;DHT22;6735;51.456;12.626;2023-04-25T04:29:46;5.80;78.20
13332;DHT22;6735;51.456;12.626;2023-04-25T04:32:13;5.80;78.20
13332;DHT22;6735;51.456;12.626;2023-04-25T04:34:38;5.90;77.90
13332;DHT22;6735;51.456;12.626;2023-04-25T04:37:05;5.90;78.40
13332;DHT22;6735;51.456;12.626;2023-04-25T04:39:30;6.00;78.10
13332;DHT22;6735;51.456;12.626;2023-04-25T04:41:56;6.10;78.10
13332;DHT22;6735;51.456;12.626;2023-04-25T04:44:21;6.10;77.90
13332;DHT22;6735;51.456;12.626;2023-04-25T04:46:48;6.10;77.80
13332;DHT22;6735;51.456;12.626;2023-04-25T04:49:13;6.20;77.60
13332;DHT22;6735;51.456;12.626;2023-04-25T04:51:39;6.30;77.40
13332;DHT22;6735;51.456;12.626;2023-04-25T04:54:06;6.40;77.10
13332;DHT22;6735;51.456;12.626;2023-04-25T04:56:32;6.40;77.10
13332;DHT22;6735;51.456;12.626;2023-04-25T04:58:57;6.50;77.00
13332;DHT22;6735;51.456;12.626;2023-04-25T05:01:23;6.70;76.50
13332;DHT22;6735;51.456;12.626;2023-04-25T05:03:49;6.90;76.20
13332;DHT22;6735;51.456;12.626;2023-04-25T05:06:16;7.10;75.60
13332;DHT22;6735;51.456;12.626;2023-04-25T05:08:41;7.40;74.70
13332;DHT22;6735;51.456;12.626;2023-04-25T05:11:07;7.40;74.70
13332;DHT22;6735;51.456;12.626;2023-04-25T05:13:32;7.50;74.20
13332;DHT22;6735;51.456;12.626;2023-04-25T05:15:58;7.70;74.00
13332;DHT22;6735;51.456;12.626;2023-04-25T05:18:23;7.70;73.70
13332;DHT22;6735;51.456;12.626;2023-04-25T05:20:49;8.10;73.30
13332;DHT22;6735;51.456;12.626;2023-04-25T05:23:14;8.40;72.50
13332;DHT22;6735;51.456;12.626;2023-04-25T05:25:40;9.20;71.70
13332;DHT22;6735;51.456;12.626;2023-04-25T05:28:06;10.90;67.50
13332;DHT22;6735;51.456;12.626;2023-04-25T05:30:31;12.40;63.30
13332;DHT22;6735;51.456;12.626;2023-04-25T05:32:57;13.10;59.90
13332;DHT22;6735;51.456;12.626;2023-04-25T05:35:22;13.90;58.80
13332;DHT22;6735;51.456;12.626;2023-04-25T05:37:47;14.60;57.40
13332;DHT22;6735;51.456;12.626;2023-04-25T05:40:13;15.50;55.40
13332;DHT22;6735;51.456;12.626;2023-04-25T05:42:38;16.20;53.70
13332;DHT22;6735;51.456;12.626;2023-04-25T05:45:04;17.00;52.60
13332;DHT22;6735;51.456;12.626;2023-04-25T05:47:30;16.80;52.90
13332;DHT22;6735;51.456;12.626;2023-04-25T05:49:55;15.70;54.00
13332;DHT22;6735;51.456;12.626;2023-04-25T05:52:21;14.80;55.00
13332;DHT22;6735;51.456;12.626;2023-04-25T05:54:46;14.20;56.20
13332;DHT22;6735;51.456;12.626;2023-04-25T05:57:23;13.70;55.70
13332;DHT22;6735;51.456;12.626;2023-04-25T05:59:49;13.20;57.30
13332;DHT22;6735;51.456;12.626;2023-04-25T06:02:15;12.80;58.30
13332;DHT22;6735;51.456;12.626;2023-04-25T06:04:40;12.60;58.80
13332;DHT22;6735;51.456;12.626;2023-04-25T06:07:06;12.30;59.10
13332;DHT22;6735;51.456;12.626;2023-04-25T06:09:31;12.10;59.60
13332;DHT22;6735;51.456;12.626;2023-04-25T06:11:57;11.90;59.80
13332;DHT22;6735;51.456;12.626;2023-04-25T06:14:22;11.70;60.00
13332;DHT22;6735;51.456;12.626;2023-04-25T06:16:47;11.60;60.00
13332;DHT22;6735;51.456;12.626;2023-04-25T06:19:13;11.60;60.10
13332;DHT22;6735;51.456;12.626;2023-04-25T06:21:38;11.60;59.80
13332;DHT22;6735;51.456;12.626;2023-04-25T06:24:04;12.10;59.50
13332;DHT22;6735;51.456;12.626;2023-04-25T06:26:30;13.40;56.80
13332;DHT22;6735;51.456;12.626;2023-04-25T06:28:55;13.40;56.00
13332;DHT22;6735;51.456;12.626;2023-04-25T06:31:20;12.80;56.60
13332;DHT22;6735;51.456;12.626;2023-04-25T06:33:46;12.60;57.70
13332;DHT22;6735;51.456;12.626;2023-04-25T06:36:13;12.20;58.30
13332;DHT22;6735;51.456;12.626;2023-04-25T06:38:39;11.90;58.20
13332;DHT22;6735;51.456;12.626;2023-04-25T06:41:04;11.70;59.40
13332;DHT22;6735;51.456;12.626;2023-04-25T06:43:30;12.90;57.30
13332;DHT22;6735;51.456;12.626;2023-04-25T06:45:58;12.90;56.70
13332;DHT22;6735;51.456;12.626;2023-04-25T06:48:24;12.90;57.40
13332;DHT22;6735;51.456;12.626;2023-04-25T06:50:50;12.70;57.00
13332;DHT22;6735;51.456;12.626;2023-04-25T06:53:16;13.10;56.80
13332;DHT22;6735;51.456;12.626;2023-04-25T06:55:41;13.70;55.40
13332;DHT22;6735;51.456;12.626;2023-04-25T06:58:06;13.70;55.80
13332;DHT22;6735;51.456;12.626;2023-04-25T07:00:32;13.50;55.70
13332;DHT22;6735;51.456;12.626;2023-04-25T07:02:58;13.20;56.40
13332;DHT22;6735;51.456;12.626;2023-04-25T07:05:24;12.90;56.30
13332;DHT22;6735;51.456;12.626;2023-04-25T07:07:49;12.70;57.30
13332;DHT22;6735;51.456;12.626;2023-04-25T07:10:15;12.50;57.80
13332;DHT22;6735;51.456;12.626;2023-04-25T07:12:40;12.20;58.40
13332;DHT22;6735;51.456;12.626;2023-04-25T07:15:06;12.20;58.40
13332;DHT22;6735;51.456;12.626;2023-04-25T07:17:33;12.10;58.80
13332;DHT22;6735;51.456;12.626;2023-04-25T07:19:59;11.80;59.10
13332;DHT22;6735;51.456;12.626;2023-04-25T07:22:24;11.70;59.50
13332;DHT22;6735;51.456;12.626;2023-04-25T07:24:51;11.50;59.60
13332;DHT22;6735;51.456;12.626;2023-04-25T07:27:18;11.50;59.80
13332;DHT22;6735;51.456;12.626;2023-04-25T07:29:44;11.10;60.60
13332;DHT22;6735;51.456;12.626;2023-04-25T07:32:09;11.00;61.00
13332;DHT22;6735;51.456;12.626;2023-04-25T07:34:37;10.90;61.10
13332;DHT22;6735;51.456;12.626;2023-04-25T07:37:04;11.00;61.10
13332;DHT22;6735;51.456;12.626;2023-04-25T07:39:30;11.00;61.10
13332;DHT22;6735;51.456;12.626;2023-04-25T07:41:55;10.90;61.40
13332;DHT22;6735;51.456;12.626;2023-04-25T07:44:22;11.00;61.30
13332;DHT22;6735;51.456;12.626;2023-04-25T07:46:47;10.80;62.00
13332;DHT22;6735;51.456;12.626;2023-04-25T07:49:13;10.80;62.30
13332;DHT22;6735;51.456;12.626;2023-04-25T07:51:38;10.80;62.40
13332;DHT22;6735;51.456;12.626;2023-04-25T07:54:04;10.80;62.70
13332;DHT22;6735;51.456;12.626;2023-04-25T07:56:30;10.60;63.00
13332;DHT22;6735;51.456;12.626;2023-04-25T07:58:56;10.60;63.30
13332;DHT22;6735;51.456;12.626;2023-04-25T08:01:21;10.60;63.30
13332;DHT22;6735;51.456;12.626;2023-04-25T08:03:47;10.80;63.20
13332;DHT22;6735;51.456;12.626;2023-04-25T08:06:12;10.80;63.10
13332;DHT22;6735;51.456;12.626;2023-04-25T08:08:38;11.30;62.80
13332;DHT22;6735;51.456;12.626;2023-04-25T08:11:03;11.90;61.50
13332;DHT22;6735;51.456;12.626;2023-04-25T08:13:29;12.30;60.60
13332;DHT22;6735;51.456;12.626;2023-04-25T08:15:54;12.50;60.30
13332;DHT22;6735;51.456;12.626;2023-04-25T08:18:20;12.40;60.10
13332;DHT22;6735;51.456;12.626;2023-04-25T08:20:45;12.50;60.00
13332;DHT22;6735;51.456;12.626;2023-04-25T08:23:11;12.40;59.50
13332;DHT22;6735;51.456;12.626;2023-04-25T08:25:36;12.20;59.80
13332;DHT22;6735;51.456;12.626;2023-04-25T08:28:02;11.60;60.30
13332;DHT22;6735;51.456;12.626;2023-04-25T08:30:28;11.40;60.60
13332;DHT22;6735;51.456;12.626;2023-04-25T08:32:54;11.20;60.80
13332;DHT22;6735;51.456;12.626;2023-04-25T08:35:20;11.00;61.40
13332;DHT22;6735;51.456;12.626;2023-04-25T08:37:45;10.90;61.70
13332;DHT22;6735;51.456;12.626;2023-04-25T08:40:14;10.70;62.10
13332;DHT22;6735;51.456;12.626;2023-04-25T08:42:41;10.50;62.80
13332;DHT22;6735;51.456;12.626;2023-04-25T08:45:08;10.40;63.40
13332;DHT22;6735;51.456;12.626;2023-04-25T08:47:34;10.40;64.60
13332;DHT22;6735;51.456;12.626;2023-04-25T08:50:02;10.40;64.80
13332;DHT22;6735;51.456;12.626;2023-04-25T08:52:30;10.40;66.00
13332;DHT22;6735;51.456;12.626;2023-04-25T08:54:58;10.20;66.30
13332;DHT22;6735;51.456;12.626;2023-04-25T08:57:24;10.30;66.70
13332;DHT22;6735;51.456;12.626;2023-04-25T08:59:51;10.50;67.20
13332;DHT22;6735;51.456;12.626;2023-04-25T09:02:18;10.60;66.30
13332;DHT22;6735;51.456;12.626;2023-04-25T09:04:45;10.70;66.00
13332;DHT22;6735;51.456;12.626;2023-04-25T09:07:11;10.90;64.50
13332;DHT22;6735;51.456;12.626;2023-04-25T09:09:37;11.00;64.50
13332;DHT22;6735;51.456;12.626;2023-04-25T09:12:02;11.00;64.30
13332;DHT22;6735;51.456;12.626;2023-04-25T09:14:28;11.10;64.20
13332;DHT22;6735;51.456;12.626;2023-04-25T09:19:30;11.40;61.80
13332;DHT22;6735;51.456;12.626;2023-04-25T09:21:57;11.30;58.80
13332;DHT22;6735;51.456;12.626;2023-04-25T09:24:42;11.30;59.20
13332;DHT22;6735;51.456;12.626;2023-04-25T09:27:11;11.50;57.00
13332;DHT22;6735;51.456;12.626;2023-04-25T09:29:40;11.50;57.60
13332;DHT22;6735;51.456;12.626;2023-04-25T09:32:21;11.70;57.70
13332;DHT22;6735;51.456;12.626;2023-04-25T09:34:47;11.90;56.30
13332;DHT22;6735;51.456;12.626;2023-04-25T09:37:26;12.10;55.30
13332;DHT22;6735;51.456;12.626;2023-04-25T09:39:55;12.20;53.20
13332;DHT22;6735;51.456;12.626;2023-04-25T09:42:27;12.40;53.70
13332;DHT22;6735;51.456;12.626;2023-04-25T09:44:55;12.60;52.80
13332;DHT22;6735;51.456;12.626;2023-04-25T09:47:23;12.70;52.50
13332;DHT22;6735;51.456;12.626;2023-04-25T09:49:50;12.70;52.50
13332;DHT22;6735;51.456;12.626;2023-04-25T09:52:19;12.50;51.70
13332;DHT22;6735;51.456;12.626;2023-04-25T09:54:46;12.40;52.70
13332;DHT22;6735;51.456;12.626;2023-04-25T09:57:13;12.40;52.90
13332;DHT22;6735;51.456;12.626;2023-04-25T09:59:43;12.60;52.70
13332;DHT22;6735;51.456;12.626;2023-04-25T10:02:10;12.70;53.90
13332;DHT22;6735;51.456;12.626;2023-04-25T10:04:37;12.70;53.60
13332;DHT22;6735;51.456;12.626;2023-04-25T10:07:05;12.70;53.50
13332;DHT22;6735;51.456;12.626;2023-04-25T10:09:32;12.70;53.60
13332;DHT22;6735;51.456;12.626;2023-04-25T10:11:59;12.50;53.60
13332;DHT22;6735;51.456;12.626;2023-04-25T10:14:26;12.40;53.70
13332;DHT22;6735;51.456;12.626;2023-04-25T10:16:52;11.90;54.10
13332;DHT22;6735;51.456;12.626;2023-04-25T10:19:19;11.90;54.10
13332;DHT22;6735;51.456;12.626;2023-04-25T10:21:52;11.80;53.80
13332;DHT22;6735;51.456;12.626;2023-04-25T10:24:19;11.80;54.40
13332;DHT22;6735;51.456;12.626;2023-04-25T10:26:46;11.80;54.40
13332;DHT22;6735;51.456;12.626;2023-04-25T10:29:12;11.90;54.40
13332;DHT22;6735;51.456;12.626;2023-04-25T10:31:46;12.10;54.30
13332;DHT22;6735;51.456;12.626;2023-04-25T10:34:12;12.40;53.70
13332;DHT22;6735;51.456;12.626;2023-04-25T10:36:38;12.50;53.30
13332;DHT22;6735;51.456;12.626;2023-04-25T10:39:06;12.60;53.10
13332;DHT22;6735;51.456;12.626;2023-04-25T10:41:58;12.90;52.80
13332;DHT22;6735;51.456;12.626;2023-04-25T10:44:28;12.90;52.30
13332;DHT22;6735;51.456;12.626;2023-04-25T10:46:59;12.80;52.90
13332;DHT22;6735;51.456;12.626;2023-04-25T10:49:32;12.70;53.30
13332;DHT22;6735;51.456;12.626;2023-04-25T10:52:11;12.60;54.00
13332;DHT22;6735;51.456;12.626;2023-04-25T10:54:48;12.40;53.90
13332;DHT22;6735;51.456;12.626;2023-04-25T10:57:28;12.10;54.20
13332;DHT22;6735;51.456;12.626;2023-04-25T11:00:10;11.70;54.50
13332;DHT22;6735;51.456;12.626;2023-04-25T11:02:50;11.60;54.50
13332;DHT22;6735;51.456;12.626;2023-04-25T11:05:33;11.50;54.80
13332;DHT22;6735;51.456;12.626;2023-04-25T11:07:59;11.40;54.80
13332;DHT22;6735;51.456;12.626;2023-04-25T11:10:26;11.20;54.50
13332;DHT22;6735;51.456;12.626;2023-04-25T11:12:52;11.20;54.30
13332;DHT22;6735;51.456;12.626;2023-04-25T11:15:17;11.10;54.30
13332;DHT22;6735;51.456;12.626;2023-04-25T11:17:43;11.00;54.20
13332;DHT22;6735;51.456;12.626;2023-04-25T11:20:11;10.90;54.40
13332;DHT22;6735;51.456;12.626;2023-04-25T11:22:38;10.70;53.80
13332;DHT22;6735;51.456;12.626;2023-04-25T11:25:07;10.70;53.70
13332;DHT22;6735;51.456;12.626;2023-04-25T11:27:32;10.70;52.90
13332;DHT22;6735;51.456;12.626;2023-04-25T11:29:58;10.70;52.80
13332;DHT22;6735;51.456;12.626;2023-04-25T11:32:23;10.70;52.40
13332;DHT22;6735;51.456;12.626;2023-04-25T11:34:49;10.90;52.00
13332;DHT22;6735;51.456;12.626;2023-04-25T11:37:15;10.90;51.40
13332;DHT22;6735;51.456;12.626;2023-04-25T11:39:44;11.00;51.30
13332;DHT22;6735;51.456;12.626;2023-04-25T11:42:11;11.10;50.80
13332;DHT22;6735;51.456;12.626;2023-04-25T11:44:38;11.20;50.50
13332;DHT22;6735;51.456;12.626;2023-04-25T11:47:04;11.20;50.70
13332;DHT22;6735;51.456;12.626;2023-04-25T11:49:31;11.30;50.90
13332;DHT22;6735;51.456;12.626;2023-04-25T11:51:57;11.50;50.90
13332;DHT22;6735;51.456;12.626;2023-04-25T11:54:23;11.60;50.90
13332;DHT22;6735;51.456;12.626;2023-04-25T11:56:48;11.60;50.80
13332;DHT22;6735;51.456;12.626;2023-04-25T11:59:14;11.80;50.60
13332;DHT22;6735;51.456;12.626;2023-04-25T12:01:48;11.90;50.50
13332;DHT22;6735;51.456;12.626;2023-04-25T12:04:19;12.00;50.70
13332;DHT22;6735;51.456;12.626;2023-04-25T12:06:46;12.10;50.60
13332;DHT22;6735;51.456;12.626;2023-04-25T12:09:14;12.10;50.70
13332;DHT22;6735;51.456;12.626;2023-04-25T12:11:45;12.20;49.90
13332;DHT22;6735;51.456;12.626;2023-04-25T12:14:12;12.10;49.30
13332;DHT22;6735;51.456;12.626;2023-04-25T12:16:46;12.20;48.90
13332;DHT22;6735;51.456;12.626;2023-04-25T12:19:19;12.20;48.50
13332;DHT22;6735;51.456;12.626;2023-04-25T12:21:45;12.10;47.70
13332;DHT22;6735;51.456;12.626;2023-04-25T12:24:25;12.10;48.70
13332;DHT22;6735;51.456;12.626;2023-04-25T12:27:03;12.30;48.10
13332;DHT22;6735;51.456;12.626;2023-04-25T12:29:33;12.30;49.00
13332;DHT22;6735;51.456;12.626;2023-04-25T12:31:59;12.40;48.90
13332;DHT22;6735;51.456;12.626;2023-04-25T12:34:27;12.40;48.70
13332;DHT22;6735;51.456;12.626;2023-04-25T12:36:52;12.30;48.40
13332;DHT22;6735;51.456;12.626;2023-04-25T12:39:22;12.20;47.60
13332;DHT22;6735;51.456;12.626;2023-04-25T12:41:49;12.00;47.50
13332;DHT22;6735;51.456;12.626;2023-04-25T12:44:15;12.00;45.90
13332;DHT22;6735;51.456;12.626;2023-04-25T12:46:41;12.00;45.90
13332;DHT22;6735;51.456;12.626;2023-04-25T12:49:07;12.00;46.00
13332;DHT22;6735;51.456;12.626;2023-04-25T12:51:34;12.00;45.30
13332;DHT22;6735;51.456;12.626;2023-04-25T12:54:00;12.10;44.90
13332;DHT22;6735;51.456;12.626;2023-04-25T12:56:27;12.10;44.30
13332;DHT22;6735;51.456;12.626;2023-04-25T12:58:53;12.20;43.70
13332;DHT22;6735;51.456;12.626;2023-04-25T13:01:19;12.20;43.70
13332;DHT22;6735;51.456;12.626;2023-04-25T13:03:44;12.40;44.10
13332;DHT22;6735;51.456;12.626;2023-04-25T13:06:10;12.70;43.50
13332;DHT22;6735;51.456;12.626;2023-04-25T13:08:36;13.00;42.80
13332;DHT22;6735;51.456;12.626;2023-04-25T13:11:03;13.00;43.10
13332;DHT22;6735;51.456;12.626;2023-04-25T13:13:29;12.90;42.00
13332;DHT22;6735;51.456;12.626;2023-04-25T13:15:55;13.00;42.10
13332;DHT22;6735;51.456;12.626;2023-04-25T13:18:20;13.20;42.10
13332;DHT22;6735;51.456;12.626;2023-04-25T13:20:46;13.20;42.10
13332;DHT22;6735;51.456;12.626;2023-04-25T13:23:11;13.20;41.40
13332;DHT22;6735;51.456;12.626;2023-04-25T13:25:37;13.10;40.80
13332;DHT22;6735;51.456;12.626;2023-04-25T13:28:03;13.10;41.60
13332;DHT22;6735;51.456;12.626;2023-04-25T13:30:28;13.20;41.90
13332;DHT22;6735;51.456;12.626;2023-04-25T13:32:54;13.00;41.40
13332;DHT22;6735;51.456;12.626;2023-04-25T13:35:22;12.70;41.70
13332;DHT22;6735;51.456;12.626;2023-04-25T13:37:47;12.60;42.10
13332;DHT22;6735;51.456;12.626;2023-04-25T13:40:13;12.40;42.10
13332;DHT22;6735;51.456;12.626;2023-04-25T13:42:39;12.20;42.40
13332;DHT22;6735;51.456;12.626;2023-04-25T13:45:06;12.20;42.80
13332;DHT22;6735;51.456;12.626;2023-04-25T13:47:31;12.20;43.00
13332;DHT22;6735;51.456;12.626;2023-04-25T13:49:57;12.10;42.70
13332;DHT22;6735;51.456;12.626;2023-04-25T13:52:22;12.20;42.90
13332;DHT22;6735;51.456;12.626;2023-04-25T13:54:51;12.40;42.40
13332;DHT22;6735;51.456;12.626;2023-04-25T13:57:17;12.50;42.60
13332;DHT22;6735;51.456;12.626;2023-04-25T13:59:43;12.60;42.40
13332;DHT22;6735;51.456;12.626;2023-04-25T14:02:08;12.80;42.10
13332;DHT22;6735;51.456;12.626;2023-04-25T14:04:34;12.90;41.40
13332;DHT22;6735;51.456;12.626;2023-04-25T14:07:00;12.90;40.70
13332;DHT22;6735;51.456;12.626;2023-04-25T14:09:26;13.00;40.80
13332;DHT22;6735;51.456;12.626;2023-04-25T14:11:52;12.90;40.60
13332;DHT22;6735;51.456;12.626;2023-04-25T14:14:19;12.90;40.10
13332;DHT22;6735;51.456;12.626;2023-04-25T14:16:45;12.90;40.50
13332;DHT22;6735;51.456;12.626;2023-04-25T14:19:13;13.10;39.90
13332;DHT22;6735;51.456;12.626;2023-04-25T14:21:39;13.10;39.50
13332;DHT22;6735;51.456;12.626;2023-04-25T14:24:04;12.80;40.20
13332;DHT22;6735;51.456;12.626;2023-04-25T14:26:30;12.90;40.90
13332;DHT22;6735;51.456;12.626;2023-04-25T14:28:55;12.90;41.20
13332;DHT22;6735;51.456;12.626;2023-04-25T14:31:21;12.80;40.70
13332;DHT22;6735;51.456;12.626;2023-04-25T14:33:47;12.80;40.60
13332;DHT22;6735;51.456;12.626;2023-04-25T14:36:12;12.90;40.90
13332;DHT22;6735;51.456;12.626;2023-04-25T14:38:39;12.80;40.70
13332;DHT22;6735;51.456;12.626;2023-04-25T14:41:05;12.80;40.90
13332;DHT22;6735;51.456;12.626;2023-04-25T14:43:30;12.80;40.80
13332;DHT22;6735;51.456;12.626;2023-04-25T14:45:56;12.70;40.10
13332;DHT22;6735;51.456;12.626;2023-04-25T14:48:22;12.70;40.10
13332;DHT22;6735;51.456;12.626;2023-04-25T14:50:48;12.80;40.40
13332;DHT22;6735;51.456;12.626;2023-04-25T14:53:14;12.70;40.70
13332;DHT22;6735;51.456;12.626;2023-04-25T14:55:40;12.70;40.30
13332;DHT22;6735;51.456;12.626;2023-04-25T14:58:06;12.70;40.50
13332;DHT22;6735;51.456;12.626;2023-04-25T15:00:32;12.70;40.40
13332;DHT22;6735;51.456;12.626;2023-04-25T15:02:58;12.70;40.90
13332;DHT22;6735;51.456;12.626;2023-04-25T15:05:24;12.60;40.20
13332;DHT22;6735;51.456;12.626;2023-04-25T15:07:50;12.60;40.60
13332;DHT22;6735;51.456;12.626;2023-04-25T15:10:17;12.40;40.90
13332;DHT22;6735;51.456;12.626;2023-04-25T15:12:43;12.40;41.60
13332;DHT22;6735;51.456;12.626;2023-04-25T15:15:10;12.40;41.60
13332;DHT22;6735;51.456;12.626;2023-04-25T15:17:37;12.40;41.80
13332;DHT22;6735;51.456;12.626;2023-04-25T15:20:04;12.30;42.00
13332;DHT22;6735;51.456;12.626;2023-04-25T15:22:30;12.20;42.10
13332;DHT22;6735;51.456;12.626;2023-04-25T15:24:56;12.20;42.40
13332;DHT22;6735;51.456;12.626;2023-04-25T15:27:22;12.10;42.50
13332;DHT22;6735;51.456;12.626;2023-04-25T15:29:48;11.90;42.80
13332;DHT22;6735;51.456;12.626;2023-04-25T15:32:14;11.90;43.10
13332;DHT22;6735;51.456;12.626;2023-04-25T15:34:40;11.80;43.10